首页
METAR-TAF:

METAR-TAF

机场 :

沃洛斯, 希腊

纬度: 39-13N, 经度: 022-48E, 海拔: 25米

当前天气观测

该预报发布于34分钟前的15:50 UTC
静风
温度 11°C
湿度 82%
气压 1006 hPa
能见度10公里或以上
少量云层高于3000英尺
散云层高于8000英尺

METAR: LGBL 121550Z 00000KT 9999 FEW030 SCT080 11/08 Q1006

时间: 18:24 (16:24 UTC)

预报

该预报发布于2小时和24分钟前的14:00 UTC
预报有效从12日的 15点(UTC)到 12日的 24点(UTC)
风速8节,风向西
能见度10公里或以上
散云层高于2000英尺
散云层高于8000英尺

TAF: LGBL 121400Z 1215/1224 28008KT 9999 SCT020 SCT080

超过4000个机场的气象观测和天气预报(METAR&TAF报告)。

可查询的气象台以黄色和红色小点在地图上表示。

将鼠标移到小点上方,可查看气象台名称。

然后点击查看天气观测和预报。

如需切换地图:点击带黑十字的绿色按钮放大地图;点击带横线的绿色按钮缩小地图;或者点击绿色箭头查看邻近地区的地图。


METAR-TAF: